Airfield :







YOU CAN JOIN US ON...

 
LOGIN :

Register | Disclaimer

   EN    FR    IT 

 









Legend :    VFR   Marginal VFR   IFR   Intensive IFR   Very Intensive IFR
Visi :
Ceiling :
>= 8 km
>= 3000ft
5 to 8 km
1000 to 3000 ft
1500m to 5 km
500 to 1000 ft
800 to 1500m
200 to 500 ft
< 800m
< 200 ft
Symbols :   Thunderstorms  Fog  Heavy snow  Heavy precipitations  Wind > 20 kt






- Airport Elevation : 124 ft
- IATA code : YGV


CYGV - Havre St Pierre

CURRENT METAR :
  • 170400Z AUTO 27018KT 9SM CLR M07/M12 A3012 RMK SLP202

EXPIRED METARs :
  • 170300Z AUTO 28017G23KT 9SM CLR M06/M12 A3009 RMK SLP194
  • 170229Z AUTO 28017G25KT 9SM CLR M06/M12 A3007 RMK SLP188
  • 170200Z AUTO 28007G15KT 9SM CLR M07/M13 A3007 RMK SLP186

TAF TAF CYGV
Valid from the 17 at 02:00 until the 17 at 14:00 UTC


170138Z 1702/1714 28015G25KT P6SM SKC
BECMG 1702/1704 30012G22KT
BECMG 1706/1708 30010KT RMK FCST BASED ON AUTO OBS. NXT FCST BY 170800Z



MET'MAP, your aeronautical weather chart ! - Copyright ORBIFLY December 2007 - Disclaimer

ORBIFLY MET'MAP TEAM :

Programming & Development : Alexandra Zaïnal
Concept & Development : Baudouin d'Aumeries
Co-Development & Prog : Marc-Olivier Méhu
Technical & hardware support : Manuel Goepfert

Contact : metmap@orbifly.com




SOURCES & CREDITS :

   NOAA